createdAt,value
2023-08-12T00:00:30.921Z,7.72
2023-08-12T00:02:53.241Z,6.35
2023-08-12T00:05:15.731Z,7.30
2023-08-12T00:07:38.441Z,4.03
2023-08-12T00:10:02.054Z,5.82
2023-08-12T00:12:24.386Z,4.55
2023-08-12T00:14:46.680Z,3.53
2023-08-12T00:17:09.090Z,4.78
2023-08-12T00:19:31.666Z,4.97
2023-08-12T00:21:53.957Z,5.20
2023-08-12T00:24:17.757Z,5.63
2023-08-12T00:26:40.101Z,4.57
2023-08-12T00:29:02.389Z,6.30
2023-08-12T00:31:24.759Z,3.67
2023-08-12T00:33:47.073Z,3.92
2023-08-12T00:36:09.385Z,4.75
2023-08-12T00:38:31.637Z,5.68
2023-08-12T00:40:53.936Z,5.20
2023-08-12T00:43:16.193Z,7.25
2023-08-12T00:45:38.765Z,3.55
2023-08-12T00:48:01.265Z,4.43
2023-08-12T00:50:23.792Z,3.80
2023-08-12T00:52:46.536Z,5.95
2023-08-12T00:55:09.481Z,6.93
2023-08-12T00:57:31.890Z,3.70
2023-08-12T00:59:54.807Z,4.75
2023-08-12T01:02:17.160Z,4.38
2023-08-12T01:04:39.530Z,5.00
2023-08-12T01:07:01.908Z,4.68
2023-08-12T01:09:24.343Z,5.35
2023-08-12T01:11:55.818Z,4.43
2023-08-12T01:14:30.357Z,5.22
2023-08-12T01:16:56.294Z,5.32
2023-08-12T01:19:33.884Z,4.03
2023-08-12T01:21:57.423Z,5.45
2023-08-12T01:24:21.393Z,6.07
2023-08-12T01:26:43.696Z,4.10
2023-08-12T01:29:06.071Z,4.70
2023-08-12T01:31:28.547Z,7.07
2023-08-12T01:33:57.921Z,5.70
2023-08-12T01:36:24.044Z,4.60
2023-08-12T01:38:48.144Z,5.72
2023-08-12T01:41:14.230Z,4.03
2023-08-12T01:43:36.828Z,5.88
2023-08-12T01:45:59.368Z,4.38
2023-08-12T01:48:24.333Z,5.95
2023-08-12T01:50:48.923Z,6.60
2023-08-12T01:53:11.361Z,5.25
2023-08-12T01:55:33.709Z,5.13
2023-08-12T01:57:56.031Z,7.68
2023-08-12T02:00:18.337Z,5.55
2023-08-12T02:02:40.724Z,4.68
2023-08-12T02:05:03.114Z,7.72
2023-08-12T02:07:25.466Z,8.07
2023-08-12T02:09:47.884Z,5.05
2023-08-12T02:12:10.143Z,5.47
2023-08-12T02:14:32.445Z,6.75
2023-08-12T02:16:54.746Z,4.13
2023-08-12T02:19:17.622Z,6.43
2023-08-12T02:21:39.898Z,4.55
2023-08-12T02:24:02.140Z,3.97
2023-08-12T02:26:24.428Z,5.65
2023-08-12T02:28:46.671Z,5.82
2023-08-12T02:31:08.971Z,5.05
2023-08-12T02:33:31.309Z,7.18
2023-08-12T02:35:56.810Z,6.75
2023-08-12T02:38:20.979Z,16.50
2023-08-12T02:40:43.273Z,9.25
2023-08-12T02:43:06.286Z,14.80
2023-08-12T02:45:28.864Z,14.23
2023-08-12T02:47:52.277Z,5.53
2023-08-12T02:50:14.601Z,6.15
2023-08-12T02:52:37.230Z,6.80
2023-08-12T02:54:59.507Z,8.25
2023-08-12T02:57:21.751Z,8.73
2023-08-12T02:59:44.073Z,6.55
2023-08-12T03:02:06.459Z,6.13
2023-08-12T03:04:28.743Z,9.45
2023-08-12T03:06:51.028Z,6.32
2023-08-12T03:09:15.193Z,5.07
2023-08-12T03:11:38.889Z,5.07
2023-08-12T03:14:03.956Z,4.78
2023-08-12T03:16:26.274Z,7.00
2023-08-12T03:18:48.727Z,7.63
2023-08-12T03:21:11.285Z,7.03
2023-08-12T03:23:34.586Z,4.95
2023-08-12T03:25:56.991Z,6.78
2023-08-12T03:28:19.283Z,5.30
2023-08-12T03:30:41.805Z,6.63
2023-08-12T03:33:04.449Z,10.30
2023-08-12T03:35:29.566Z,12.43
2023-08-12T03:37:53.633Z,9.85
2023-08-12T03:40:16.511Z,10.25
2023-08-12T03:42:39.089Z,5.30
2023-08-12T03:45:02.294Z,11.23
2023-08-12T03:47:25.898Z,5.40
2023-08-12T03:49:48.268Z,7.28
2023-08-12T03:52:10.776Z,4.65
2023-08-12T03:54:33.075Z,5.47
2023-08-12T03:56:56.387Z,5.13
2023-08-12T03:59:19.775Z,5.15
2023-08-12T04:01:42.080Z,7.78
2023-08-12T04:04:04.455Z,5.13
2023-08-12T04:06:26.687Z,4.45
2023-08-12T04:08:49.004Z,4.93
2023-08-12T04:11:11.312Z,6.88
2023-08-12T04:13:36.519Z,4.55
2023-08-12T04:15:58.863Z,5.05
2023-08-12T04:18:21.742Z,4.38
2023-08-12T04:20:46.924Z,4.53
2023-08-12T04:23:09.276Z,5.47
2023-08-12T04:25:32.187Z,5.22
2023-08-12T04:27:54.544Z,6.32
2023-08-12T04:30:18.090Z,5.70
2023-08-12T04:32:40.935Z,5.80
2023-08-12T04:35:04.545Z,6.03
2023-08-12T04:37:27.203Z,8.02
2023-08-12T04:39:50.025Z,6.07
2023-08-12T04:42:12.261Z,5.20
2023-08-12T04:44:35.123Z,5.35
2023-08-12T04:46:57.595Z,5.63
2023-08-12T04:49:21.441Z,4.97
2023-08-12T04:51:44.255Z,6.45
2023-08-12T04:54:06.611Z,6.05
2023-08-12T04:56:30.197Z,5.75
2023-08-12T04:58:52.754Z,5.85
2023-08-12T05:01:15.256Z,8.68
2023-08-12T05:03:39.260Z,4.82
2023-08-12T05:06:01.684Z,5.45
2023-08-12T05:08:23.967Z,4.78
2023-08-12T05:10:49.495Z,6.13
2023-08-12T05:13:11.851Z,4.53
2023-08-12T05:15:34.209Z,7.03
2023-08-12T05:17:56.735Z,7.00
2023-08-12T05:20:19.624Z,4.60
2023-08-12T05:22:42.820Z,4.82
2023-08-12T05:25:05.289Z,6.63
2023-08-12T05:27:27.618Z,7.65
2023-08-12T05:29:49.940Z,8.73
2023-08-12T05:32:12.574Z,5.75
2023-08-12T05:34:34.964Z,5.63
2023-08-12T05:36:57.433Z,4.32
2023-08-12T05:39:19.735Z,5.93
2023-08-12T05:41:42.073Z,6.18
2023-08-12T05:44:04.599Z,3.90
2023-08-12T05:46:26.892Z,3.58
2023-08-12T05:48:49.177Z,5.82
2023-08-12T05:51:11.616Z,6.47
2023-08-12T05:53:36.715Z,5.68
2023-08-12T05:55:58.950Z,3.42
2023-08-12T05:58:21.492Z,4.45
2023-08-12T06:00:46.528Z,5.68
2023-08-12T06:03:08.865Z,3.78
2023-08-12T06:05:31.295Z,3.45
2023-08-12T06:07:53.597Z,8.07
2023-08-12T06:10:15.859Z,4.13
2023-08-12T06:12:38.143Z,4.72
2023-08-12T06:15:02.285Z,4.28
2023-08-12T06:17:24.515Z,5.03
2023-08-12T06:19:47.159Z,6.10
2023-08-12T06:22:09.462Z,5.47
2023-08-12T06:24:31.887Z,4.85
2023-08-12T06:26:54.545Z,5.50
2023-08-12T06:29:17.132Z,7.40
2023-08-12T06:31:39.425Z,8.48
2023-08-12T06:34:02.120Z,9.50
2023-08-12T06:36:24.743Z,6.97
2023-08-12T06:38:47.062Z,6.82
2023-08-12T06:41:09.302Z,8.45
2023-08-12T06:43:31.584Z,8.35
2023-08-12T06:45:53.840Z,8.05
2023-08-12T06:48:16.165Z,9.32
2023-08-12T06:50:41.123Z,9.57
2023-08-12T06:53:03.837Z,11.55
2023-08-12T06:55:26.181Z,10.60
2023-08-12T06:57:51.312Z,11.63
2023-08-12T07:00:13.808Z,10.77
2023-08-12T07:02:36.657Z,13.70
2023-08-12T07:04:58.944Z,10.57
2023-08-12T07:07:21.209Z,12.90
2023-08-12T07:09:43.490Z,11.85
2023-08-12T07:12:06.013Z,14.68
2023-08-12T07:14:29.128Z,12.35
2023-08-12T07:16:51.413Z,14.60
2023-08-12T07:19:15.855Z,11.20
2023-08-12T07:21:39.281Z,11.55
2023-08-12T07:24:04.020Z,11.07
2023-08-12T07:26:26.975Z,10.73
2023-08-12T07:28:51.469Z,9.13
2023-08-12T07:31:13.819Z,9.13
2023-08-12T07:33:36.372Z,8.73
2023-08-12T07:35:58.660Z,10.27
2023-08-12T07:38:20.917Z,11.95
2023-08-12T07:40:43.494Z,10.15
2023-08-12T07:43:06.387Z,10.52
2023-08-12T07:45:28.981Z,11.95
2023-08-12T07:47:51.748Z,11.57
2023-08-12T07:50:14.038Z,9.27
2023-08-12T07:52:36.537Z,11.32
2023-08-12T07:54:58.984Z,10.48
2023-08-12T07:57:25.087Z,10.55
2023-08-12T07:59:47.334Z,9.88
2023-08-12T08:02:09.595Z,10.63
2023-08-12T08:04:32.162Z,11.65
2023-08-12T08:06:54.584Z,10.57
2023-08-12T08:09:16.909Z,9.07
2023-08-12T08:11:39.281Z,9.98
2023-08-12T08:14:01.527Z,9.43
2023-08-12T08:16:23.884Z,8.70
2023-08-12T08:18:47.343Z,8.00
2023-08-12T08:21:10.270Z,7.97
2023-08-12T08:23:32.711Z,7.60
2023-08-12T08:25:54.968Z,7.47
2023-08-12T08:28:17.213Z,9.10
2023-08-12T08:30:39.530Z,6.45
2023-08-12T08:33:01.916Z,6.20
2023-08-12T08:35:24.273Z,5.97
2023-08-12T08:37:46.572Z,8.18
2023-08-12T08:40:09.556Z,6.38
2023-08-12T08:42:32.623Z,7.10
2023-08-12T08:44:54.986Z,6.03
2023-08-12T08:47:19.057Z,7.15
2023-08-12T08:49:42.050Z,7.82
2023-08-12T08:52:04.515Z,7.53
2023-08-12T08:54:27.428Z,7.45
2023-08-12T08:56:54.688Z,6.85
2023-08-12T08:59:27.175Z,5.50
2023-08-12T09:01:52.516Z,5.88
2023-08-12T09:04:16.393Z,5.22
2023-08-12T09:06:38.991Z,3.75
2023-08-12T09:09:02.294Z,3.67
2023-08-12T09:11:24.849Z,3.58
2023-08-12T09:13:47.816Z,4.68
2023-08-12T09:16:10.514Z,4.00
2023-08-12T09:18:32.918Z,4.85
2023-08-12T09:20:55.597Z,4.05
2023-08-12T09:23:19.184Z,2.67
2023-08-12T09:25:47.414Z,3.65
2023-08-12T09:28:10.987Z,2.38
2023-08-12T09:30:33.372Z,5.15
2023-08-12T09:33:05.270Z,3.30
2023-08-12T09:35:38.304Z,4.30
2023-08-12T09:38:00.589Z,4.28
2023-08-12T09:40:23.887Z,4.20
2023-08-12T09:42:47.351Z,3.97
2023-08-12T09:45:09.982Z,4.93
2023-08-12T09:47:32.439Z,7.25
2023-08-12T09:49:55.444Z,4.63
2023-08-12T09:52:19.548Z,11.70
2023-08-12T09:54:42.844Z,6.05
2023-08-12T09:57:09.221Z,6.90
2023-08-12T09:59:35.812Z,9.02
2023-08-12T10:01:58.683Z,7.85
2023-08-12T10:04:25.598Z,6.05
2023-08-12T10:06:48.873Z,4.63
2023-08-12T10:09:12.287Z,4.93
2023-08-12T10:11:34.921Z,7.70
2023-08-12T10:13:58.247Z,6.13
2023-08-12T10:16:21.029Z,5.70
2023-08-12T10:18:43.904Z,4.25
2023-08-12T10:21:08.780Z,5.45
2023-08-12T10:23:31.325Z,4.80
2023-08-12T10:25:56.790Z,5.82
2023-08-12T10:28:20.705Z,3.85
2023-08-12T10:30:43.324Z,3.22
2023-08-12T10:33:06.389Z,4.38
2023-08-12T10:35:50.588Z,4.03
2023-08-12T10:38:13.789Z,2.63
2023-08-12T10:40:36.181Z,2.63
2023-08-12T10:42:58.464Z,3.28
2023-08-12T10:45:20.972Z,2.58
2023-08-12T10:47:45.392Z,2.92
2023-08-12T10:50:08.024Z,3.92
2023-08-12T10:52:31.242Z,3.72
2023-08-12T10:54:54.336Z,1.38
2023-08-12T10:57:17.229Z,2.63
2023-08-12T10:59:48.290Z,2.53
2023-08-12T11:02:17.693Z,2.83
2023-08-12T11:04:40.120Z,5.15
2023-08-12T11:07:15.981Z,1.98
2023-08-12T11:09:38.389Z,1.67
2023-08-12T11:12:01.222Z,4.82
2023-08-12T11:14:25.638Z,5.13
2023-08-12T11:16:50.969Z,3.53
2023-08-12T11:19:13.653Z,3.25
2023-08-12T11:21:37.984Z,3.92
2023-08-12T11:24:01.540Z,2.03
2023-08-12T11:26:25.415Z,3.30
2023-08-12T11:28:48.809Z,4.22
2023-08-12T11:31:11.254Z,2.75
2023-08-12T11:34:33.684Z,4.47
2023-08-12T11:36:56.057Z,2.88
2023-08-12T11:39:18.337Z,2.92
2023-08-12T11:41:40.642Z,2.28
2023-08-12T11:44:03.308Z,2.80
2023-08-12T11:46:26.838Z,2.88
2023-08-12T11:48:51.698Z,6.20
2023-08-12T11:51:15.669Z,2.90
2023-08-12T11:53:39.059Z,2.35
2023-08-12T11:56:01.585Z,2.90
2023-08-12T11:58:25.168Z,3.30
2023-08-12T12:00:50.634Z,2.75
2023-08-12T12:03:12.850Z,3.63
2023-08-12T12:05:38.130Z,2.65
2023-08-12T12:08:10.054Z,4.63
2023-08-12T12:10:35.458Z,2.03
2023-08-12T12:12:58.429Z,4.82
2023-08-12T12:15:20.673Z,2.50
2023-08-12T12:17:43.258Z,3.15
2023-08-12T12:20:06.472Z,1.90
2023-08-12T12:22:34.138Z,2.42
2023-08-12T12:24:56.671Z,3.60
2023-08-12T12:27:18.923Z,2.78
2023-08-12T12:29:41.320Z,4.57
2023-08-12T12:32:03.660Z,3.63
2023-08-12T12:34:26.038Z,1.65
2023-08-12T12:36:48.340Z,3.72
2023-08-12T12:39:10.605Z,2.58
2023-08-12T12:41:33.997Z,2.25
2023-08-12T12:43:56.277Z,3.60
2023-08-12T12:46:18.581Z,1.60
2023-08-12T12:48:41.886Z,3.92
2023-08-12T12:51:04.222Z,4.07
2023-08-12T12:53:26.553Z,3.67
2023-08-12T12:55:48.952Z,4.60
2023-08-12T12:58:12.621Z,3.15
2023-08-12T13:00:35.039Z,6.95
2023-08-12T13:02:57.319Z,3.20
2023-08-12T13:05:19.623Z,1.38
2023-08-12T13:07:41.910Z,2.92
2023-08-12T13:10:04.455Z,4.05
2023-08-12T13:12:26.698Z,3.50
2023-08-12T13:14:48.916Z,3.85
2023-08-12T13:17:11.221Z,3.22
2023-08-12T13:19:33.474Z,2.17
2023-08-12T13:21:55.722Z,6.57
2023-08-12T13:24:18.168Z,3.25
2023-08-12T13:26:40.557Z,1.90
2023-08-12T13:29:02.973Z,2.20
2023-08-12T13:31:26.322Z,3.08
2023-08-12T13:33:48.769Z,2.53
2023-08-12T13:36:11.081Z,4.10
2023-08-12T13:38:33.421Z,2.05
2023-08-12T13:40:55.664Z,3.67
2023-08-12T13:43:18.019Z,2.90
2023-08-12T13:45:40.327Z,2.40
2023-08-12T13:48:02.662Z,2.88
2023-08-12T13:50:25.201Z,1.88
2023-08-12T13:52:48.323Z,3.65
2023-08-12T13:55:10.768Z,2.97
2023-08-12T13:57:32.984Z,3.53
2023-08-12T13:59:55.246Z,3.08
2023-08-12T14:02:17.506Z,3.13
2023-08-12T14:04:39.752Z,3.60
2023-08-12T14:07:02.004Z,3.28
2023-08-12T14:09:24.543Z,3.90
2023-08-12T14:11:46.955Z,3.28
2023-08-12T14:14:09.300Z,3.58
2023-08-12T14:16:31.582Z,3.92
2023-08-12T14:18:54.055Z,3.63
2023-08-12T14:21:16.436Z,3.60
2023-08-12T14:23:38.865Z,1.88
2023-08-12T14:26:01.125Z,2.22
2023-08-12T14:28:23.401Z,1.67
2023-08-12T14:30:45.711Z,3.60
2023-08-12T14:33:08.236Z,3.15
2023-08-12T14:35:30.777Z,3.08
2023-08-12T14:37:53.009Z,5.03
2023-08-12T14:40:15.262Z,4.18
2023-08-12T14:42:37.545Z,2.58
2023-08-12T14:45:00.832Z,2.45
2023-08-12T14:47:23.199Z,3.22
2023-08-12T14:49:45.624Z,3.45
2023-08-12T14:52:16.392Z,3.05
2023-08-12T14:54:38.697Z,3.20
2023-08-12T14:57:01.034Z,4.07
2023-08-12T14:59:23.345Z,4.03
2023-08-12T15:01:46.148Z,3.00
2023-08-12T15:04:08.490Z,4.53
2023-08-12T15:06:30.830Z,3.45
2023-08-12T15:08:53.451Z,3.65
2023-08-12T15:11:15.744Z,4.00
2023-08-12T15:13:38.072Z,2.15
2023-08-12T15:16:00.477Z,3.95
2023-08-12T15:18:23.966Z,3.38
2023-08-12T15:20:46.536Z,2.97
2023-08-12T15:23:08.799Z,2.80
2023-08-12T15:25:31.631Z,2.17
2023-08-12T15:27:54.007Z,2.28
2023-08-12T15:30:16.423Z,3.88
2023-08-12T15:32:41.448Z,2.08
2023-08-12T15:35:05.347Z,1.60
2023-08-12T15:37:27.614Z,4.03
2023-08-12T15:39:49.966Z,1.58
2023-08-12T15:42:12.250Z,1.40
2023-08-12T15:44:34.549Z,1.38
2023-08-12T15:46:57.068Z,3.45
2023-08-12T15:49:19.330Z,4.97
2023-08-12T15:51:41.993Z,3.90
2023-08-12T15:54:04.768Z,2.05
2023-08-12T15:56:29.634Z,2.83
2023-08-12T15:58:53.342Z,1.88
2023-08-12T16:01:15.646Z,2.30
2023-08-12T16:03:38.004Z,1.45
2023-08-12T16:06:00.397Z,1.35
2023-08-12T16:08:22.660Z,1.60
2023-08-12T16:10:45.189Z,3.10
2023-08-12T16:13:07.436Z,1.38
2023-08-12T16:15:29.745Z,1.95
2023-08-12T16:17:52.026Z,1.35
2023-08-12T16:20:14.316Z,0.77
2023-08-12T16:22:36.627Z,1.20
2023-08-12T16:24:58.937Z,0.65
2023-08-12T16:27:21.169Z,0.75
2023-08-12T16:29:43.449Z,0.93
2023-08-12T16:32:05.840Z,0.20
2023-08-12T16:34:28.261Z,0.43
2023-08-12T16:37:02.109Z,0.90
2023-08-12T16:39:32.878Z,0.47
2023-08-12T16:41:55.468Z,0.40
2023-08-12T16:44:17.741Z,1.30
2023-08-12T16:46:40.146Z,1.13
2023-08-12T16:49:02.457Z,0.40
2023-08-12T16:51:24.779Z,0.43
2023-08-12T16:53:47.076Z,0.60
2023-08-12T16:56:09.335Z,0.80
2023-08-12T16:58:33.981Z,0.40
2023-08-12T17:00:56.395Z,0.85
2023-08-12T17:03:18.691Z,0.40
2023-08-12T17:05:40.967Z,1.90
2023-08-12T17:08:03.427Z,0.50
2023-08-12T17:10:25.894Z,0.63
2023-08-12T17:12:48.647Z,0.40
2023-08-12T17:15:12.617Z,1.75
2023-08-12T17:17:35.387Z,0.77
2023-08-12T17:19:57.650Z,0.50
2023-08-12T17:22:21.860Z,1.38
2023-08-12T17:24:44.776Z,0.20
2023-08-12T17:27:07.022Z,0.30
2023-08-12T17:29:29.296Z,0.32
2023-08-12T17:31:52.016Z,0.45
2023-08-12T17:34:14.316Z,0.40
2023-08-12T17:36:36.616Z,0.25
2023-08-12T17:38:59.085Z,0.38
2023-08-12T17:41:21.370Z,0.47
2023-08-12T17:43:44.848Z,0.30
2023-08-12T17:46:07.227Z,0.50
2023-08-12T17:48:29.860Z,1.40
2023-08-12T17:50:52.125Z,0.52
2023-08-12T17:53:14.470Z,0.80
2023-08-12T17:55:37.276Z,0.50
2023-08-12T17:58:00.161Z,0.57
2023-08-12T18:00:23.869Z,1.20
2023-08-12T18:02:46.298Z,0.75
2023-08-12T18:05:09.417Z,0.73
2023-08-12T18:07:31.659Z,0.68
2023-08-12T18:09:56.661Z,2.70
2023-08-12T18:12:19.354Z,0.68
2023-08-12T18:14:41.690Z,0.60
2023-08-12T18:17:04.045Z,0.90
2023-08-12T18:19:26.401Z,0.60
2023-08-12T18:21:48.688Z,0.45
2023-08-12T18:24:11.080Z,1.25
2023-08-12T18:26:33.407Z,0.90
2023-08-12T18:28:55.762Z,1.00
2023-08-12T18:31:18.119Z,0.50
2023-08-12T18:33:40.381Z,1.40
2023-08-12T18:36:02.662Z,1.88
2023-08-12T18:38:24.906Z,0.80
2023-08-12T18:40:47.203Z,1.20
2023-08-12T18:43:09.479Z,0.80
2023-08-12T18:45:31.736Z,1.10
2023-08-12T18:47:54.058Z,0.63
2023-08-12T18:50:16.438Z,1.35
2023-08-12T18:52:39.575Z,0.77
2023-08-12T18:55:02.161Z,0.63
2023-08-12T18:57:25.683Z,0.65
2023-08-12T18:59:48.100Z,0.77
2023-08-12T19:02:10.787Z,1.15
2023-08-12T19:04:33.130Z,0.70
2023-08-12T19:06:55.412Z,0.80
2023-08-12T19:09:17.697Z,0.63
2023-08-12T19:11:40.064Z,0.65
2023-08-12T19:14:02.417Z,0.75
2023-08-12T19:16:24.829Z,0.63
2023-08-12T19:18:47.123Z,3.83
2023-08-12T19:21:09.660Z,1.27
2023-08-12T19:23:31.892Z,0.70
2023-08-12T19:25:54.818Z,1.15
2023-08-12T19:28:17.406Z,0.85
2023-08-12T19:30:39.658Z,1.75
2023-08-12T19:33:02.122Z,3.85
2023-08-12T19:35:24.802Z,1.17
2023-08-12T19:37:47.745Z,1.05
2023-08-12T19:40:11.569Z,1.92
2023-08-12T19:42:34.014Z,1.10
2023-08-12T19:44:56.280Z,1.10
2023-08-12T19:47:20.250Z,0.90
2023-08-12T19:49:42.752Z,2.20
2023-08-12T19:52:05.089Z,2.65
2023-08-12T19:54:27.393Z,2.25
2023-08-12T19:56:50.172Z,1.55
2023-08-12T19:59:13.637Z,1.33
2023-08-12T20:01:35.986Z,1.50
2023-08-12T20:03:58.277Z,1.10
2023-08-12T20:06:20.602Z,1.08
2023-08-12T20:08:42.854Z,1.95
2023-08-12T20:11:05.151Z,1.20
2023-08-12T20:13:27.519Z,1.75
2023-08-12T20:15:58.882Z,1.38
2023-08-12T20:18:21.205Z,3.45
2023-08-12T20:20:48.286Z,1.30
2023-08-12T20:23:10.674Z,0.90
2023-08-12T20:25:33.069Z,3.10
2023-08-12T20:27:56.961Z,2.67
2023-08-12T20:30:19.285Z,1.70
2023-08-12T20:32:41.612Z,3.90
2023-08-12T20:35:04.102Z,1.33
2023-08-12T20:37:27.939Z,2.60
2023-08-12T20:39:51.534Z,1.40
2023-08-12T20:42:13.841Z,1.42
2023-08-12T20:44:36.102Z,2.90
2023-08-12T20:46:58.325Z,2.78
2023-08-12T20:49:20.740Z,4.65
2023-08-12T20:51:42.985Z,2.30
2023-08-12T20:54:05.437Z,1.63
2023-08-12T20:56:27.964Z,3.97
2023-08-12T20:58:50.308Z,2.78
2023-08-12T21:01:12.711Z,2.88
2023-08-12T21:03:35.258Z,3.47
2023-08-12T21:05:58.034Z,5.63
2023-08-12T21:08:20.424Z,3.03
2023-08-12T21:10:42.670Z,2.67
2023-08-12T21:13:05.018Z,3.05
2023-08-12T21:15:27.462Z,2.33
2023-08-12T21:17:50.065Z,2.08
2023-08-12T21:20:12.661Z,2.70
2023-08-12T21:22:35.167Z,1.85
2023-08-12T21:24:57.473Z,1.88
2023-08-12T21:27:20.078Z,2.10
2023-08-12T21:29:42.467Z,1.80
2023-08-12T21:32:04.900Z,5.55
2023-08-12T21:34:27.183Z,2.08
2023-08-12T21:36:49.433Z,1.88
2023-08-12T21:39:12.020Z,2.58
2023-08-12T21:41:34.829Z,2.70
2023-08-12T21:43:57.681Z,2.03
2023-08-12T21:46:20.035Z,1.90
2023-08-12T21:48:42.406Z,4.57
2023-08-12T21:51:05.396Z,1.60
2023-08-12T21:53:28.682Z,2.10
2023-08-12T21:55:51.236Z,3.25
2023-08-12T21:58:13.618Z,4.47
2023-08-12T22:00:35.863Z,2.22
2023-08-12T22:02:58.337Z,2.72
2023-08-12T22:05:20.665Z,1.90
2023-08-12T22:07:42.891Z,1.88
2023-08-12T22:10:05.448Z,1.70
2023-08-12T22:12:27.763Z,1.63
2023-08-12T22:14:50.160Z,1.50
2023-08-12T22:17:12.403Z,3.05
2023-08-12T22:19:34.960Z,3.55
2023-08-12T22:22:09.114Z,1.40
2023-08-12T22:24:40.033Z,2.97
2023-08-12T22:27:02.411Z,1.48
2023-08-12T22:29:25.019Z,3.53
2023-08-12T22:31:47.554Z,1.48
2023-08-12T22:34:11.229Z,3.25
2023-08-12T22:36:33.815Z,1.63
2023-08-12T22:38:56.074Z,1.80
2023-08-12T22:41:18.654Z,2.47
2023-08-12T22:43:40.932Z,2.10
2023-08-12T22:46:03.179Z,2.95
2023-08-12T22:48:25.416Z,1.85
2023-08-12T22:50:47.854Z,2.97
2023-08-12T22:53:13.657Z,2.47
2023-08-12T22:55:35.938Z,2.30
2023-08-12T22:57:58.523Z,2.72
2023-08-12T23:00:20.841Z,3.55
2023-08-12T23:02:43.283Z,2.75
2023-08-12T23:05:06.249Z,2.22
2023-08-12T23:07:28.554Z,2.38
2023-08-12T23:09:50.836Z,2.30
2023-08-12T23:12:13.215Z,3.70
2023-08-12T23:14:35.696Z,2.28
2023-08-12T23:16:58.104Z,3.13
2023-08-12T23:19:20.473Z,2.33
2023-08-12T23:21:42.739Z,2.78
2023-08-12T23:24:05.124Z,4.68
2023-08-12T23:26:27.416Z,2.30
2023-08-12T23:28:49.715Z,3.00
2023-08-12T23:31:12.036Z,2.92
2023-08-12T23:33:34.460Z,2.10
2023-08-12T23:35:56.921Z,4.28
2023-08-12T23:38:19.392Z,3.28
2023-08-12T23:40:41.958Z,3.08
2023-08-12T23:43:04.389Z,2.60
2023-08-12T23:45:26.821Z,4.70
2023-08-12T23:47:49.114Z,4.03
2023-08-12T23:50:14.657Z,2.95
2023-08-12T23:52:36.933Z,3.00
2023-08-12T23:54:59.199Z,4.65
2023-08-12T23:57:21.446Z,2.58
2023-08-12T23:59:43.682Z,2.53
